createdAt,value
2023-05-15T00:00:44.597Z,98.10
2023-05-15T00:03:12.522Z,97.90
2023-05-15T00:05:40.265Z,97.50
2023-05-15T00:08:09.403Z,97.20
2023-05-15T00:10:36.481Z,96.80
2023-05-15T00:13:03.776Z,96.70
2023-05-15T00:15:31.757Z,96.70
2023-05-15T00:17:58.721Z,96.40
2023-05-15T00:20:25.566Z,96.70
2023-05-15T00:22:52.505Z,96.90
2023-05-15T00:25:19.730Z,97.00
2023-05-15T00:27:46.828Z,97.10
2023-05-15T00:30:14.412Z,97.20
2023-05-15T00:32:41.394Z,97.20
2023-05-15T00:35:08.669Z,97.10
2023-05-15T00:37:38.555Z,96.70
2023-05-15T00:40:10.727Z,96.40
2023-05-15T00:42:41.047Z,96.40
2023-05-15T00:45:10.686Z,96.20
2023-05-15T00:47:40.368Z,96.00
2023-05-15T00:50:08.838Z,95.90
2023-05-15T00:52:36.956Z,95.50
2023-05-15T00:55:05.088Z,95.80
2023-05-15T00:57:32.326Z,95.20
2023-05-15T01:00:01.163Z,95.10
2023-05-15T01:02:28.118Z,95.00
2023-05-15T01:04:55.204Z,94.20
2023-05-15T01:07:22.180Z,93.90
2023-05-15T01:09:52.623Z,93.50
2023-05-15T01:12:21.895Z,93.20
2023-05-15T01:14:52.049Z,92.90
2023-05-15T01:17:18.900Z,92.70
2023-05-15T01:19:50.267Z,92.50
2023-05-15T01:22:26.286Z,92.40
2023-05-15T01:25:02.126Z,92.20
2023-05-15T01:27:28.916Z,92.20
2023-05-15T01:30:00.288Z,92.20
2023-05-15T01:32:47.733Z,92.10
2023-05-15T01:35:25.167Z,92.20
2023-05-15T01:38:14.676Z,91.90
2023-05-15T01:40:44.007Z,91.80
2023-05-15T01:43:20.809Z,91.90
2023-05-15T01:45:47.685Z,91.80
2023-05-15T01:48:19.350Z,92.00
2023-05-15T01:50:47.358Z,92.10
2023-05-15T01:53:15.851Z,92.00
2023-05-15T01:55:43.472Z,92.00
2023-05-15T01:58:10.955Z,91.80
2023-05-15T02:00:40.177Z,91.80
2023-05-15T02:03:07.378Z,91.80
2023-05-15T02:05:35.333Z,91.90
2023-05-15T02:08:04.379Z,92.00
2023-05-15T02:10:33.215Z,92.00
2023-05-15T02:13:00.996Z,92.00
2023-05-15T02:15:28.797Z,92.00
2023-05-15T02:17:56.179Z,92.00
2023-05-15T02:20:23.215Z,91.90
2023-05-15T02:22:50.164Z,91.90
2023-05-15T02:25:20.466Z,92.00
2023-05-15T02:28:00.340Z,92.20
2023-05-15T02:30:40.345Z,92.00
2023-05-15T02:33:25.310Z,92.00
2023-05-15T02:36:05.330Z,92.00
2023-05-15T02:38:46.812Z,92.10
2023-05-15T02:41:16.634Z,92.20
2023-05-15T02:43:44.654Z,92.30
2023-05-15T02:46:13.356Z,92.30
2023-05-15T02:48:41.998Z,92.50
2023-05-15T02:51:09.235Z,92.40
2023-05-15T02:53:42.983Z,92.50
2023-05-15T02:56:10.322Z,92.60
2023-05-15T02:58:38.748Z,92.60
2023-05-15T03:01:07.281Z,92.80
2023-05-15T03:03:34.324Z,92.70
2023-05-15T03:06:04.377Z,92.80
2023-05-15T03:08:38.621Z,92.80
2023-05-15T03:11:06.115Z,92.90
2023-05-15T03:13:33.075Z,93.00
2023-05-15T03:16:00.103Z,93.00
2023-05-15T03:18:27.144Z,93.00
2023-05-15T03:20:54.145Z,93.10
2023-05-15T03:23:23.321Z,93.10
2023-05-15T03:25:50.176Z,93.10
2023-05-15T03:28:19.741Z,93.20
2023-05-15T03:30:46.691Z,93.20
2023-05-15T03:33:15.895Z,93.20
2023-05-15T03:35:42.873Z,93.30
2023-05-15T03:38:12.391Z,93.30
2023-05-15T03:40:40.008Z,93.40
2023-05-15T03:43:07.061Z,93.50
2023-05-15T03:45:35.409Z,93.50
2023-05-15T03:48:02.257Z,93.70
2023-05-15T03:50:29.892Z,93.70
2023-05-15T03:52:56.805Z,93.80
2023-05-15T03:55:23.871Z,93.80
2023-05-15T03:57:50.949Z,93.90
2023-05-15T04:00:19.163Z,93.90
2023-05-15T04:02:49.625Z,93.90
2023-05-15T04:05:20.950Z,94.00
2023-05-15T04:07:50.895Z,94.00
2023-05-15T04:10:20.552Z,93.90
2023-05-15T04:12:49.569Z,93.80
2023-05-15T04:15:24.690Z,93.70
2023-05-15T04:17:53.705Z,93.60
2023-05-15T04:20:22.939Z,93.50
2023-05-15T04:22:50.587Z,93.70
2023-05-15T04:25:20.561Z,93.80
2023-05-15T04:27:47.793Z,93.90
2023-05-15T04:30:17.373Z,94.00
2023-05-15T04:32:44.577Z,94.00
2023-05-15T04:35:15.494Z,94.20
2023-05-15T04:37:49.900Z,94.20
2023-05-15T04:40:22.090Z,94.10
2023-05-15T04:42:56.796Z,94.30
2023-05-15T04:45:29.485Z,94.40
2023-05-15T04:47:56.510Z,94.30
2023-05-15T04:50:23.585Z,94.40
2023-05-15T04:52:51.859Z,94.40
2023-05-15T04:55:18.896Z,94.50
2023-05-15T04:57:51.885Z,94.40
2023-05-15T05:00:19.041Z,94.40
2023-05-15T05:02:46.202Z,94.40
2023-05-15T05:05:14.729Z,94.40
2023-05-15T05:07:42.496Z,94.50
2023-05-15T05:10:10.000Z,94.50
2023-05-15T05:12:39.546Z,94.40
2023-05-15T05:15:15.771Z,94.60
2023-05-15T05:17:43.100Z,94.50
2023-05-15T05:20:13.551Z,94.60
2023-05-15T05:22:43.313Z,94.60
2023-05-15T05:25:10.924Z,94.60
2023-05-15T05:27:38.200Z,94.50
2023-05-15T05:30:05.682Z,94.70
2023-05-15T05:32:37.010Z,94.60
2023-05-15T05:35:04.288Z,94.60
2023-05-15T05:37:41.220Z,94.30
2023-05-15T05:40:14.388Z,94.30
2023-05-15T05:42:41.610Z,94.30
2023-05-15T05:45:14.923Z,94.20
2023-05-15T05:47:43.181Z,94.30
2023-05-15T05:50:13.626Z,94.20
2023-05-15T05:52:46.413Z,94.20
2023-05-15T05:55:13.437Z,94.40
2023-05-15T05:57:40.456Z,94.00
2023-05-15T06:00:11.771Z,94.10
2023-05-15T06:02:38.904Z,93.90
2023-05-15T06:05:09.849Z,94.00
2023-05-15T06:07:37.344Z,93.90
2023-05-15T06:10:08.953Z,93.60
2023-05-15T06:12:39.333Z,93.70
2023-05-15T06:15:08.972Z,93.60
2023-05-15T06:17:38.359Z,93.00
2023-05-15T06:20:09.808Z,92.40
2023-05-15T06:22:49.061Z,91.40
2023-05-15T06:25:22.677Z,91.70
2023-05-15T06:27:49.564Z,91.10
2023-05-15T06:30:18.756Z,91.20
2023-05-15T06:32:46.344Z,91.10
2023-05-15T06:35:13.257Z,90.40
2023-05-15T06:37:40.047Z,89.30
2023-05-15T06:40:09.742Z,88.80
2023-05-15T06:42:36.765Z,89.20
2023-05-15T06:45:03.972Z,88.60
2023-05-15T06:47:30.961Z,88.80
2023-05-15T06:50:04.972Z,88.60
2023-05-15T06:52:34.922Z,88.70
2023-05-15T06:55:01.707Z,88.60
2023-05-15T06:57:28.581Z,89.10
2023-05-15T06:59:55.373Z,89.00
2023-05-15T07:02:22.233Z,89.90
2023-05-15T07:04:49.191Z,89.40
2023-05-15T07:07:18.650Z,90.10
2023-05-15T07:09:48.509Z,90.00
2023-05-15T07:12:20.177Z,89.80
2023-05-15T07:14:48.075Z,90.00
2023-05-15T07:17:14.970Z,90.00
2023-05-15T07:19:41.864Z,90.10
2023-05-15T07:22:08.868Z,90.10
2023-05-15T07:24:37.382Z,90.40
2023-05-15T07:27:05.466Z,90.40
2023-05-15T07:29:32.310Z,90.00
2023-05-15T07:31:59.204Z,89.80
2023-05-15T07:34:26.069Z,90.10
2023-05-15T07:36:52.989Z,89.80
2023-05-15T07:39:20.021Z,89.40
2023-05-15T07:41:47.456Z,89.50
2023-05-15T07:44:14.371Z,88.70
2023-05-15T07:46:41.418Z,87.40
2023-05-15T07:49:08.434Z,87.60
2023-05-15T07:51:35.562Z,86.30
2023-05-15T07:54:04.273Z,84.40
2023-05-15T07:56:31.219Z,83.30
2023-05-15T07:58:58.100Z,83.90
2023-05-15T08:01:25.149Z,83.60
2023-05-15T08:03:52.197Z,84.10
2023-05-15T08:06:19.037Z,83.90
2023-05-15T08:08:45.991Z,83.80
2023-05-15T08:11:12.830Z,85.00
2023-05-15T08:13:39.665Z,83.90
2023-05-15T08:16:06.893Z,83.60
2023-05-15T08:18:33.872Z,84.60
2023-05-15T08:21:01.951Z,84.50
2023-05-15T08:23:29.718Z,84.50
2023-05-15T08:25:56.604Z,84.60
2023-05-15T08:28:23.404Z,85.00
2023-05-15T08:30:50.411Z,84.20
2023-05-15T08:33:17.358Z,84.80
2023-05-15T08:35:44.314Z,83.80
2023-05-15T08:38:11.123Z,83.80
2023-05-15T08:40:40.048Z,82.80
2023-05-15T08:43:16.104Z,82.40
2023-05-15T08:45:44.260Z,82.70
2023-05-15T08:48:14.689Z,80.70
2023-05-15T08:50:44.591Z,80.00
2023-05-15T08:53:13.438Z,79.80
2023-05-15T08:55:41.688Z,78.30
2023-05-15T08:58:09.928Z,76.80
2023-05-15T09:00:37.697Z,73.70
2023-05-15T09:03:05.193Z,74.60
2023-05-15T09:05:32.510Z,72.00
2023-05-15T09:08:04.049Z,69.20
2023-05-15T09:10:31.917Z,67.00
2023-05-15T09:13:03.630Z,60.50
2023-05-15T09:15:30.659Z,56.30
2023-05-15T09:17:58.477Z,50.50
2023-05-15T09:20:36.434Z,50.40
2023-05-15T09:23:05.333Z,48.50
2023-05-15T09:25:39.859Z,46.00
2023-05-15T09:28:09.331Z,44.50
2023-05-15T09:30:41.751Z,42.20
2023-05-15T09:33:09.763Z,42.30
2023-05-15T09:35:40.970Z,44.10
2023-05-15T09:38:12.716Z,43.70
2023-05-15T09:40:42.860Z,44.30
2023-05-15T09:43:12.940Z,43.80
2023-05-15T09:45:40.029Z,43.80
2023-05-15T09:48:07.910Z,43.00
2023-05-15T09:50:38.998Z,42.90
2023-05-15T09:53:06.403Z,39.80
2023-05-15T09:55:34.873Z,36.80
2023-05-15T09:58:15.842Z,38.60
2023-05-15T10:00:47.702Z,39.70
2023-05-15T10:03:17.330Z,42.80
2023-05-15T10:05:44.602Z,44.70
2023-05-15T10:08:11.699Z,46.50
2023-05-15T10:10:38.885Z,45.10
2023-05-15T10:13:08.333Z,45.40
2023-05-15T10:15:35.785Z,47.90
2023-05-15T10:18:04.910Z,44.20
2023-05-15T10:20:35.668Z,42.40
2023-05-15T10:23:05.786Z,39.00
2023-05-15T10:25:43.832Z,39.30
2023-05-15T10:28:11.850Z,41.10
2023-05-15T10:30:39.144Z,38.90
2023-05-15T10:33:06.895Z,39.30
2023-05-15T10:35:39.580Z,41.70
2023-05-15T10:38:07.026Z,38.90
2023-05-15T10:40:37.804Z,41.60
2023-05-15T10:43:06.033Z,35.90
2023-05-15T10:45:35.125Z,36.30
2023-05-15T10:48:03.871Z,35.90
2023-05-15T10:50:30.815Z,36.10
2023-05-15T10:52:57.578Z,36.90
2023-05-15T10:55:24.460Z,37.30
2023-05-15T10:57:53.644Z,40.90
2023-05-15T11:00:24.198Z,38.60
2023-05-15T11:02:56.989Z,36.40
2023-05-15T11:05:24.758Z,37.70
2023-05-15T11:08:13.629Z,39.20
2023-05-15T11:10:40.553Z,37.90
2023-05-15T11:13:07.561Z,38.80
2023-05-15T11:15:45.124Z,38.50
2023-05-15T11:18:12.485Z,37.50
2023-05-15T11:21:03.627Z,39.30
2023-05-15T11:23:39.477Z,39.20
2023-05-15T11:26:06.468Z,38.70
2023-05-15T11:28:43.024Z,39.00
2023-05-15T11:31:09.920Z,39.60
2023-05-15T11:33:39.554Z,42.20
2023-05-15T11:36:07.237Z,41.50
2023-05-15T11:38:39.888Z,41.80
2023-05-15T11:41:21.944Z,40.60
2023-05-15T11:43:50.298Z,41.20
2023-05-15T11:46:17.468Z,40.80
2023-05-15T11:48:49.019Z,39.30
2023-05-15T11:51:25.009Z,38.50
2023-05-15T11:53:53.813Z,37.60
2023-05-15T11:56:25.775Z,36.20
2023-05-15T11:58:57.077Z,36.50
2023-05-15T12:01:24.143Z,36.40
2023-05-15T12:03:51.923Z,36.70
2023-05-15T12:06:19.123Z,35.90
2023-05-15T12:08:52.185Z,37.90
2023-05-15T12:11:23.332Z,37.70
2023-05-15T12:13:54.584Z,37.20
2023-05-15T12:16:28.286Z,37.90
2023-05-15T12:18:57.670Z,40.60
2023-05-15T12:21:27.277Z,37.90
2023-05-15T12:26:26.965Z,37.60
2023-05-15T12:28:54.482Z,39.30
2023-05-15T12:31:21.417Z,38.10
2023-05-15T12:33:48.475Z,40.30
2023-05-15T12:36:15.456Z,36.60
2023-05-15T12:38:42.367Z,36.60
2023-05-15T12:41:14.101Z,40.10
2023-05-15T12:43:43.557Z,39.80
2023-05-15T12:46:13.510Z,41.00
2023-05-15T12:48:52.603Z,42.30
2023-05-15T12:51:25.653Z,43.10
2023-05-15T12:53:58.047Z,41.10
2023-05-15T12:56:25.008Z,43.20
2023-05-15T12:58:54.459Z,42.10
2023-05-15T13:01:24.819Z,40.60
2023-05-15T13:03:52.871Z,43.00
2023-05-15T13:06:23.592Z,43.30
2023-05-15T13:08:51.909Z,42.70
2023-05-15T13:11:19.333Z,44.40
2023-05-15T13:13:48.348Z,46.70
2023-05-15T13:16:26.638Z,46.70
2023-05-15T13:18:53.883Z,46.40
2023-05-15T13:21:20.850Z,47.90
2023-05-15T13:23:51.009Z,46.90
2023-05-15T13:26:26.087Z,48.00
2023-05-15T13:28:52.978Z,49.10
2023-05-15T13:31:19.992Z,47.90
2023-05-15T13:33:47.066Z,46.90
2023-05-15T13:36:19.897Z,46.50
2023-05-15T13:38:47.849Z,48.40
2023-05-15T13:41:14.678Z,48.60
2023-05-15T13:43:41.535Z,47.60
2023-05-15T13:46:10.630Z,46.00
2023-05-15T13:48:37.465Z,48.10
2023-05-15T13:51:04.314Z,47.70
2023-05-15T13:53:31.324Z,47.20
2023-05-15T13:55:58.272Z,48.60
2023-05-15T13:58:26.813Z,50.10
2023-05-15T14:00:53.852Z,50.00
2023-05-15T14:03:23.268Z,51.00
2023-05-15T14:05:52.999Z,48.10
2023-05-15T14:08:20.128Z,47.80
2023-05-15T14:10:46.952Z,47.20
2023-05-15T14:13:13.861Z,47.00
2023-05-15T14:15:42.605Z,49.60
2023-05-15T14:18:09.500Z,45.80
2023-05-15T14:20:36.600Z,45.50
2023-05-15T14:23:06.292Z,46.80
2023-05-15T14:25:33.236Z,47.10
2023-05-15T14:28:00.068Z,47.80
2023-05-15T14:30:27.308Z,49.60
2023-05-15T14:32:54.438Z,48.70
2023-05-15T14:35:23.180Z,50.40
2023-05-15T14:37:50.068Z,51.30
2023-05-15T14:40:24.721Z,51.50
2023-05-15T14:42:51.820Z,51.90
2023-05-15T14:45:18.831Z,52.40
2023-05-15T14:47:45.666Z,53.10
2023-05-15T14:50:12.575Z,52.70
2023-05-15T14:52:42.193Z,54.40
2023-05-15T14:55:11.423Z,52.60
2023-05-15T14:57:38.838Z,52.30
2023-05-15T15:00:09.469Z,50.70
2023-05-15T15:02:46.272Z,52.40
2023-05-15T15:05:15.635Z,54.00
2023-05-15T15:07:57.648Z,51.80
2023-05-15T15:10:24.810Z,51.80
2023-05-15T15:12:51.977Z,49.80
2023-05-15T15:15:20.036Z,49.00
2023-05-15T15:17:47.120Z,49.50
2023-05-15T15:20:16.302Z,51.50
2023-05-15T15:22:43.181Z,52.50
2023-05-15T15:25:10.621Z,54.30
2023-05-15T15:27:37.449Z,52.20
2023-05-15T15:30:05.585Z,50.00
2023-05-15T15:32:32.650Z,50.00
2023-05-15T15:34:59.755Z,50.90
2023-05-15T15:37:30.295Z,50.70
2023-05-15T15:40:06.054Z,51.50
2023-05-15T15:42:33.305Z,52.20
2023-05-15T15:45:01.816Z,51.20
2023-05-15T15:47:32.201Z,52.50
2023-05-15T15:49:59.869Z,52.60
2023-05-15T15:52:27.718Z,53.40
2023-05-15T15:54:54.717Z,51.80
2023-05-15T15:57:21.929Z,51.40
2023-05-15T15:59:51.584Z,51.50
2023-05-15T16:02:18.475Z,51.00
2023-05-15T16:04:45.544Z,51.80
2023-05-15T16:07:12.364Z,51.60
2023-05-15T16:09:39.393Z,52.20
2023-05-15T16:12:06.413Z,52.50
2023-05-15T16:14:35.842Z,52.40
2023-05-15T16:17:10.305Z,52.90
2023-05-15T16:19:37.274Z,53.40
2023-05-15T16:22:04.238Z,52.50
2023-05-15T16:24:31.456Z,53.80
2023-05-15T16:26:58.266Z,53.20
2023-05-15T16:29:25.131Z,53.90
2023-05-15T16:31:53.022Z,54.20
2023-05-15T16:34:51.050Z,55.50
2023-05-15T16:37:20.980Z,56.40
2023-05-15T16:39:47.921Z,56.70
2023-05-15T16:42:14.723Z,56.60
2023-05-15T16:44:41.589Z,55.90
2023-05-15T16:47:08.776Z,56.40
2023-05-15T16:49:35.650Z,57.10
2023-05-15T16:52:05.080Z,57.10
2023-05-15T16:54:32.060Z,57.40
2023-05-15T16:56:58.948Z,57.10
2023-05-15T16:59:25.854Z,56.50
2023-05-15T17:01:52.942Z,56.80
2023-05-15T17:04:20.069Z,57.50
2023-05-15T17:06:46.976Z,57.80
2023-05-15T17:09:14.184Z,58.00
2023-05-15T17:11:43.344Z,58.20
2023-05-15T17:14:12.585Z,58.30
2023-05-15T17:16:49.248Z,59.40
2023-05-15T17:19:26.564Z,59.80
2023-05-15T17:21:56.228Z,59.60
2023-05-15T17:24:23.188Z,59.20
2023-05-15T17:26:50.109Z,59.60
2023-05-15T17:29:27.016Z,59.30
2023-05-15T17:31:54.305Z,59.70
2023-05-15T17:34:21.572Z,59.90
2023-05-15T17:36:48.435Z,60.50
2023-05-15T17:39:15.413Z,60.80
2023-05-15T17:41:44.343Z,61.40
2023-05-15T17:44:11.872Z,63.00
2023-05-15T17:46:38.858Z,60.70
2023-05-15T17:49:11.462Z,61.30
2023-05-15T17:51:49.105Z,61.70
2023-05-15T17:54:17.472Z,61.40
2023-05-15T17:56:44.911Z,62.20
2023-05-15T17:59:12.024Z,62.00
2023-05-15T18:01:39.051Z,59.70
2023-05-15T18:04:06.387Z,59.30
2023-05-15T18:06:36.529Z,60.30
2023-05-15T18:09:05.115Z,58.90
2023-05-15T18:11:34.353Z,58.30
2023-05-15T18:14:03.680Z,58.30
2023-05-15T18:16:32.640Z,58.90
2023-05-15T18:19:00.015Z,57.60
2023-05-15T18:21:28.058Z,58.00
2023-05-15T18:23:54.898Z,58.10
2023-05-15T18:26:22.233Z,58.30
2023-05-15T18:28:49.508Z,57.90
2023-05-15T18:31:16.370Z,57.70
2023-05-15T18:33:44.876Z,58.30
2023-05-15T18:36:11.826Z,59.60
2023-05-15T18:38:38.598Z,59.70
2023-05-15T18:41:05.720Z,60.20
2023-05-15T18:43:32.576Z,61.00
2023-05-15T18:45:59.516Z,64.30
2023-05-15T18:48:26.600Z,67.20
2023-05-15T18:50:54.065Z,69.20
2023-05-15T18:53:20.923Z,70.00
2023-05-15T18:55:48.062Z,70.40
2023-05-15T18:58:15.013Z,70.70
2023-05-15T19:00:41.829Z,70.80
2023-05-15T19:03:09.020Z,70.70
2023-05-15T19:05:35.938Z,71.70
2023-05-15T19:08:04.247Z,70.90
2023-05-15T19:10:31.168Z,71.10
2023-05-15T19:12:58.576Z,70.70
2023-05-15T19:15:25.842Z,70.90
2023-05-15T19:17:52.949Z,70.80
2023-05-15T19:20:20.294Z,71.40
2023-05-15T19:22:47.304Z,71.60
2023-05-15T19:25:14.179Z,71.20
2023-05-15T19:27:41.357Z,72.40
2023-05-15T19:30:09.825Z,72.40
2023-05-15T19:32:37.228Z,72.80
2023-05-15T19:35:04.828Z,73.40
2023-05-15T19:37:31.596Z,74.00
2023-05-15T19:39:58.447Z,75.40
2023-05-15T19:42:26.065Z,75.80
2023-05-15T19:44:52.991Z,76.00
2023-05-15T19:47:19.978Z,76.70
2023-05-15T19:49:46.779Z,77.30
2023-05-15T19:52:13.556Z,78.10
2023-05-15T19:54:40.671Z,79.20
2023-05-15T19:57:07.810Z,79.70
2023-05-15T19:59:34.652Z,80.30
2023-05-15T20:02:02.774Z,81.40
2023-05-15T20:04:33.954Z,81.80
2023-05-15T20:07:01.128Z,83.60
2023-05-15T20:09:28.097Z,83.20
2023-05-15T20:11:55.125Z,83.30
2023-05-15T20:14:22.277Z,84.30
2023-05-15T20:16:51.372Z,84.90
2023-05-15T20:19:21.447Z,85.70
2023-05-15T20:21:48.296Z,85.90
2023-05-15T20:24:19.204Z,86.60
2023-05-15T20:26:48.818Z,86.80
2023-05-15T20:29:15.759Z,86.90
2023-05-15T20:31:49.857Z,87.30
2023-05-15T20:34:19.340Z,87.40
2023-05-15T20:36:46.309Z,87.70
2023-05-15T20:39:14.722Z,88.00
2023-05-15T20:41:41.474Z,88.10
2023-05-15T20:44:08.381Z,88.60
2023-05-15T20:46:39.679Z,88.80
2023-05-15T20:49:06.923Z,89.10
2023-05-15T20:51:33.739Z,89.30
2023-05-15T20:54:03.922Z,89.80
2023-05-15T20:56:33.802Z,90.00
2023-05-15T20:59:03.480Z,90.00
2023-05-15T21:01:30.376Z,90.20
2023-05-15T21:03:57.439Z,90.30
2023-05-15T21:06:24.787Z,90.40
2023-05-15T21:08:54.185Z,90.40
2023-05-15T21:11:21.750Z,90.30
2023-05-15T21:13:48.987Z,90.40
2023-05-15T21:16:15.993Z,90.70
2023-05-15T21:18:43.215Z,90.90
2023-05-15T21:21:16.371Z,90.90
2023-05-15T21:23:43.528Z,91.00
2023-05-15T21:26:12.125Z,91.10
2023-05-15T21:28:40.956Z,91.00
2023-05-15T21:31:11.246Z,90.80
2023-05-15T21:33:38.248Z,90.70
2023-05-15T21:36:05.635Z,90.70
2023-05-15T21:38:32.792Z,90.60
2023-05-15T21:41:00.008Z,90.40
2023-05-15T21:43:29.367Z,90.40
2023-05-15T21:45:57.006Z,90.20
2023-05-15T21:48:23.869Z,90.40
2023-05-15T21:50:50.790Z,90.50
2023-05-15T21:53:17.580Z,90.60
2023-05-15T21:55:44.720Z,90.60
2023-05-15T21:58:11.652Z,90.90
2023-05-15T22:00:39.823Z,91.00
2023-05-15T22:03:06.708Z,91.00
2023-05-15T22:05:35.974Z,91.10
2023-05-15T22:08:02.802Z,91.00
2023-05-15T22:10:29.694Z,91.20
2023-05-15T22:13:04.092Z,91.30
2023-05-15T22:15:31.088Z,91.00
2023-05-15T22:18:01.816Z,91.00
2023-05-15T22:20:29.125Z,91.00
2023-05-15T22:22:56.192Z,91.00
2023-05-15T22:25:23.327Z,90.90
2023-05-15T22:27:50.174Z,91.00
2023-05-15T22:30:17.085Z,91.00
2023-05-15T22:32:44.064Z,91.00
2023-05-15T22:35:13.243Z,91.00
2023-05-15T22:37:42.026Z,91.00
2023-05-15T22:40:10.995Z,91.10
2023-05-15T22:42:38.068Z,91.10
2023-05-15T22:45:07.431Z,91.10
2023-05-15T22:47:34.425Z,91.20
2023-05-15T22:50:01.491Z,91.30
2023-05-15T22:52:28.403Z,91.30
2023-05-15T22:55:13.770Z,91.60
2023-05-15T22:57:40.655Z,91.60
2023-05-15T23:00:08.607Z,91.90
2023-05-15T23:02:37.695Z,91.60
2023-05-15T23:05:05.020Z,91.50
2023-05-15T23:08:07.632Z,91.50
2023-05-15T23:10:34.521Z,91.30
2023-05-15T23:13:01.349Z,91.20
2023-05-15T23:15:28.290Z,91.10
2023-05-15T23:17:56.000Z,91.10
2023-05-15T23:20:25.850Z,91.10
2023-05-15T23:22:55.896Z,91.00
2023-05-15T23:25:22.774Z,91.00
2023-05-15T23:27:51.013Z,91.00
2023-05-15T23:30:17.985Z,90.90
2023-05-15T23:32:47.516Z,90.80
2023-05-15T23:35:16.834Z,90.80
2023-05-15T23:37:43.631Z,91.00
2023-05-15T23:40:13.590Z,90.90
2023-05-15T23:42:41.748Z,91.00
2023-05-15T23:45:09.590Z,91.10
2023-05-15T23:47:36.678Z,91.10
2023-05-15T23:50:06.163Z,91.10
2023-05-15T23:52:33.029Z,91.10
2023-05-15T23:55:00.252Z,91.10
2023-05-15T23:57:27.134Z,91.10
2023-05-15T23:59:54.029Z,91.10
